createdAt,value
2019-03-02T00:00:25.973Z,17.90
2019-03-02T00:02:30.782Z,21.80
2019-03-02T00:04:35.574Z,14.23
2019-03-02T00:06:40.444Z,15.73
2019-03-02T00:08:45.272Z,14.80
2019-03-02T00:10:50.377Z,14.90
2019-03-02T00:12:55.192Z,15.60
2019-03-02T00:14:59.988Z,16.20
2019-03-02T00:17:04.773Z,16.67
2019-03-02T00:19:09.619Z,17.07
2019-03-02T00:21:14.379Z,11.60
2019-03-02T00:23:19.774Z,15.63
2019-03-02T00:25:25.672Z,15.50
2019-03-02T00:27:30.812Z,12.47
2019-03-02T00:29:35.635Z,19.20
2019-03-02T00:31:40.471Z,17.27
2019-03-02T00:33:45.519Z,13.37
2019-03-02T00:35:50.435Z,13.77
2019-03-02T00:37:55.599Z,14.23
2019-03-02T00:40:00.507Z,19.17
2019-03-02T00:42:05.698Z,18.70
2019-03-02T00:44:10.955Z,22.43
2019-03-02T00:46:15.990Z,20.40
2019-03-02T00:48:21.511Z,17.50
2019-03-02T00:50:26.354Z,17.90
2019-03-02T00:52:31.495Z,21.30
2019-03-02T00:54:36.631Z,26.77
2019-03-02T00:56:42.878Z,26.57
2019-03-02T00:58:48.189Z,27.03
2019-03-02T01:00:53.699Z,22.67
2019-03-02T01:02:59.416Z,23.20
2019-03-02T01:05:04.499Z,27.53
2019-03-02T01:07:09.342Z,22.00
2019-03-02T01:09:14.515Z,34.47
2019-03-02T01:11:19.259Z,26.60
2019-03-02T01:13:24.025Z,25.40
2019-03-02T01:15:28.728Z,28.27
2019-03-02T01:17:33.512Z,24.80
2019-03-02T01:19:38.217Z,23.30
2019-03-02T01:21:43.008Z,23.47
2019-03-02T01:23:47.821Z,23.10
2019-03-02T01:25:52.578Z,27.03
2019-03-02T01:27:57.602Z,26.07
2019-03-02T01:30:02.436Z,30.43
2019-03-02T01:32:07.600Z,35.80
2019-03-02T01:34:12.284Z,27.13
2019-03-02T01:36:17.268Z,24.27
2019-03-02T01:38:22.298Z,26.50
2019-03-02T01:40:27.242Z,32.00
2019-03-02T01:42:32.028Z,30.97
2019-03-02T01:44:36.814Z,28.23
2019-03-02T01:46:41.688Z,36.97
2019-03-02T01:48:46.516Z,35.17
2019-03-02T01:50:51.290Z,29.70
2019-03-02T01:52:56.269Z,35.80
2019-03-02T01:55:01.052Z,38.83
2019-03-02T01:57:06.220Z,34.37
2019-03-02T01:59:11.377Z,37.23
2019-03-02T02:01:16.151Z,40.23
2019-03-02T02:03:21.065Z,39.27
2019-03-02T02:05:28.572Z,37.90
2019-03-02T02:07:32.572Z,56.27
2019-03-02T02:09:40.247Z,37.43
2019-03-02T02:11:44.270Z,43.77
2019-03-02T02:13:49.044Z,39.37
2019-03-02T02:15:54.022Z,43.57
2019-03-02T02:17:59.457Z,44.43
2019-03-02T02:20:05.680Z,46.57
2019-03-02T02:22:10.431Z,44.70
2019-03-02T02:24:15.192Z,41.63
2019-03-02T02:26:19.963Z,48.67
2019-03-02T02:28:25.301Z,45.60
2019-03-02T02:30:30.493Z,43.67
2019-03-02T02:32:35.280Z,41.00
2019-03-02T02:34:40.228Z,62.47
2019-03-02T02:36:45.349Z,56.57
2019-03-02T02:38:54.564Z,47.93
2019-03-02T02:40:56.718Z,42.97
2019-03-02T02:43:01.549Z,43.90
2019-03-02T02:45:11.136Z,39.87
2019-03-02T02:47:14.059Z,50.27
2019-03-02T02:49:18.998Z,42.70
2019-03-02T02:51:23.754Z,49.00
2019-03-02T02:53:28.895Z,48.60
2019-03-02T02:55:36.215Z,45.40
2019-03-02T02:57:40.463Z,50.50
2019-03-02T02:59:45.923Z,44.70
2019-03-02T03:01:50.652Z,46.80
2019-03-02T03:03:59.424Z,48.07
2019-03-02T03:06:02.777Z,57.27
2019-03-02T03:08:07.559Z,48.00
2019-03-02T03:10:31.933Z,43.57
2019-03-02T03:12:36.727Z,46.47
2019-03-02T03:14:42.637Z,58.87
2019-03-02T03:16:49.527Z,48.60
2019-03-02T03:18:54.095Z,45.70
2019-03-02T03:20:58.828Z,55.30
2019-03-02T03:23:03.553Z,49.17
2019-03-02T03:25:08.530Z,47.93
2019-03-02T03:27:14.779Z,50.50
2019-03-02T03:29:19.660Z,45.53
2019-03-02T03:31:25.860Z,47.90
2019-03-02T03:33:41.708Z,54.17
2019-03-02T03:35:37.379Z,42.27
2019-03-02T03:37:42.227Z,47.60
2019-03-02T03:39:48.146Z,47.80
2019-03-02T03:41:53.036Z,46.90
2019-03-02T03:43:58.116Z,45.67
2019-03-02T03:46:02.856Z,49.80
2019-03-02T03:48:07.684Z,47.47
2019-03-02T03:50:13.930Z,59.63
2019-03-02T03:52:18.968Z,52.50
2019-03-02T03:54:23.867Z,55.20
2019-03-02T03:56:29.023Z,49.90
2019-03-02T03:58:35.171Z,64.90
2019-03-02T04:00:40.423Z,50.93
2019-03-02T04:02:45.647Z,46.30
2019-03-02T04:04:50.590Z,46.67
2019-03-02T04:06:55.656Z,51.60
2019-03-02T04:09:03.416Z,53.27
2019-03-02T04:11:07.244Z,49.83
2019-03-02T04:13:12.388Z,47.97
2019-03-02T04:15:17.269Z,50.60
2019-03-02T04:17:22.088Z,49.73
2019-03-02T04:19:34.031Z,55.53
2019-03-02T04:21:45.890Z,49.80
2019-03-02T04:23:50.799Z,52.43
2019-03-02T04:25:56.657Z,61.13
2019-03-02T04:28:02.094Z,56.30
2019-03-02T04:30:07.424Z,61.60
2019-03-02T04:32:12.905Z,59.60
2019-03-02T04:34:21.349Z,54.33
2019-03-02T04:36:24.526Z,53.10
2019-03-02T04:38:33.645Z,58.97
2019-03-02T04:40:36.195Z,58.87
2019-03-02T04:42:41.344Z,58.10
2019-03-02T04:44:46.075Z,54.13
2019-03-02T04:46:51.396Z,64.97
2019-03-02T04:48:56.910Z,57.13
2019-03-02T04:51:02.621Z,58.20
2019-03-02T04:53:07.538Z,64.83
2019-03-02T04:55:13.621Z,64.23
2019-03-02T04:57:18.762Z,69.53
2019-03-02T04:59:24.225Z,67.93
2019-03-02T05:01:29.024Z,72.17
2019-03-02T05:03:33.786Z,73.50
2019-03-02T05:05:40.602Z,70.87
2019-03-02T05:07:45.391Z,63.03
2019-03-02T05:09:52.065Z,70.67
2019-03-02T05:11:57.383Z,73.27
2019-03-02T05:14:04.253Z,73.97
2019-03-02T05:16:08.625Z,73.90
2019-03-02T05:18:14.769Z,70.83
2019-03-02T05:20:20.066Z,73.77
2019-03-02T05:22:25.149Z,69.07
2019-03-02T05:24:29.911Z,69.80
2019-03-02T05:26:35.033Z,74.70
2019-03-02T05:28:42.966Z,79.10
2019-03-02T05:30:46.641Z,80.83
2019-03-02T05:32:52.646Z,76.40
2019-03-02T05:34:57.645Z,75.07
2019-03-02T05:37:02.933Z,82.33
2019-03-02T05:39:08.623Z,82.70
2019-03-02T05:41:13.460Z,89.00
2019-03-02T05:43:19.657Z,82.43
2019-03-02T05:45:43.473Z,90.37
2019-03-02T05:47:48.554Z,86.73
2019-03-02T05:49:54.554Z,77.73
2019-03-02T05:51:59.868Z,88.20
2019-03-02T05:54:06.439Z,92.90
2019-03-02T05:56:11.256Z,97.57
2019-03-02T05:58:17.114Z,90.97
2019-03-02T06:00:23.013Z,95.90
2019-03-02T06:02:27.855Z,92.33
2019-03-02T06:04:32.639Z,94.30
2019-03-02T06:06:37.813Z,98.20
2019-03-02T06:08:42.668Z,105.33
2019-03-02T06:10:47.773Z,96.93
2019-03-02T06:12:53.079Z,100.20
2019-03-02T06:14:57.926Z,95.87
2019-03-02T06:17:02.671Z,95.97
2019-03-02T06:19:07.415Z,113.67
2019-03-02T06:21:12.227Z,109.17
2019-03-02T07:42:13.346Z,82.30
2019-03-02T07:44:18.829Z,87.20
2019-03-02T07:46:44.112Z,83.93
2019-03-02T07:49:09.136Z,84.50
2019-03-02T07:51:15.617Z,86.27
2019-03-02T07:53:20.336Z,89.77
2019-03-02T07:55:25.060Z,81.40
2019-03-02T07:57:30.102Z,76.70
2019-03-02T07:59:34.909Z,83.30
2019-03-02T08:01:40.024Z,77.73
2019-03-02T08:03:44.799Z,85.33
2019-03-02T08:05:50.709Z,75.70
2019-03-02T08:07:56.150Z,88.73
2019-03-02T08:10:02.101Z,84.30
2019-03-02T08:12:07.423Z,81.10
2019-03-02T08:14:16.242Z,85.50
2019-03-02T08:16:21.289Z,71.73
2019-03-02T08:18:29.349Z,80.07
2019-03-02T08:20:34.547Z,80.50
2019-03-02T08:22:42.742Z,88.03
2019-03-02T08:24:46.046Z,76.70
2019-03-02T08:26:51.656Z,75.13
2019-03-02T08:28:56.797Z,77.47
2019-03-02T08:31:01.912Z,76.13
2019-03-02T08:33:06.610Z,80.13
2019-03-02T08:35:12.123Z,72.37
2019-03-02T08:37:16.920Z,73.83
2019-03-02T08:39:21.747Z,83.40
2019-03-02T08:41:26.473Z,72.63
2019-03-02T08:43:31.294Z,71.50
2019-03-02T08:45:36.091Z,71.97
2019-03-02T08:47:40.971Z,71.70
2019-03-02T08:49:45.986Z,74.57
2019-03-02T08:51:51.033Z,80.33
2019-03-02T08:53:56.085Z,67.60
2019-03-02T08:56:00.934Z,71.37
2019-03-02T08:58:22.538Z,81.27
2019-03-02T09:04:47.275Z,67.30
2019-03-02T09:06:46.286Z,73.07
2019-03-02T09:08:51.038Z,75.37
2019-03-02T09:10:56.295Z,69.30
2019-03-02T09:16:43.752Z,65.20
2019-03-02T09:18:50.603Z,59.73
2019-03-02T09:20:58.056Z,64.50
2019-03-02T09:23:02.833Z,61.03
2019-03-02T09:25:20.292Z,61.47
2019-03-02T09:27:26.642Z,55.43
2019-03-02T09:29:31.388Z,56.43
2019-03-02T09:31:44.095Z,54.90
2019-03-02T09:33:51.565Z,63.60
2019-03-02T09:39:17.120Z,52.60
2019-03-02T09:42:02.629Z,62.93
2019-03-02T09:44:13.375Z,58.40
2019-03-02T09:46:49.492Z,50.77
2019-03-02T09:48:45.665Z,50.67
2019-03-02T09:50:50.835Z,57.20
2019-03-02T09:52:56.023Z,48.27
2019-03-02T09:55:01.437Z,46.90
2019-03-02T09:57:08.463Z,59.10
2019-03-02T09:59:13.402Z,53.57
2019-03-02T10:01:18.545Z,52.50
2019-03-02T10:03:26.846Z,54.30
2019-03-02T10:05:34.415Z,49.90
2019-03-02T10:07:40.411Z,51.57
2019-03-02T10:09:45.755Z,52.43
2019-03-02T10:11:51.409Z,42.50
2019-03-02T10:13:56.250Z,45.83
2019-03-02T10:16:04.343Z,46.23
2019-03-02T10:18:13.828Z,45.30
2019-03-02T10:20:18.838Z,51.10
2019-03-02T10:22:24.194Z,44.30
2019-03-02T10:24:29.415Z,42.90
2019-03-02T10:26:34.174Z,48.27
2019-03-02T10:28:39.212Z,46.70
2019-03-02T10:30:44.193Z,40.47
2019-03-02T10:32:51.887Z,47.93
2019-03-02T10:34:56.136Z,46.13
2019-03-02T10:37:07.344Z,43.83
2019-03-02T10:39:11.822Z,47.00
2019-03-02T10:41:20.168Z,43.17
2019-03-02T10:43:27.292Z,44.20
2019-03-02T10:45:33.770Z,46.47
2019-03-02T10:47:39.108Z,46.60
2019-03-02T10:49:44.690Z,36.70
2019-03-02T10:51:51.252Z,36.30
2019-03-02T10:53:59.617Z,37.80
2019-03-02T10:56:06.029Z,37.20
2019-03-02T10:58:12.414Z,33.87
2019-03-02T11:00:42.764Z,40.80
2019-03-02T11:02:35.549Z,35.40
2019-03-02T11:04:57.141Z,42.50
2019-03-02T11:07:21.976Z,37.30
2019-03-02T11:09:39.342Z,32.70
2019-03-02T11:12:02.965Z,34.80
2019-03-02T11:14:41.326Z,40.13
2019-03-02T11:17:03.161Z,34.80
2019-03-02T11:32:36.082Z,34.50
2019-03-02T11:49:06.485Z,31.17
2019-03-02T11:51:24.026Z,35.77
2019-03-02T11:54:00.772Z,32.63
2019-03-02T11:56:39.119Z,32.53
2019-03-02T11:59:06.057Z,30.50
2019-03-02T12:01:39.027Z,29.40
2019-03-02T12:04:02.603Z,30.40
2019-03-02T12:06:24.993Z,28.93
2019-03-02T12:08:43.779Z,29.80
2019-03-02T12:11:06.959Z,28.93
2019-03-02T12:13:46.804Z,30.13
2019-03-02T12:15:59.003Z,28.93
2019-03-02T12:18:23.014Z,32.77
2019-03-02T12:20:41.424Z,33.83
2019-03-02T12:23:07.818Z,31.20
2019-03-02T12:25:23.071Z,27.00
2019-03-02T12:27:55.083Z,24.60
2019-03-02T12:30:18.091Z,32.67
2019-03-02T12:32:29.924Z,27.67
2019-03-02T12:34:47.769Z,26.50
2019-03-02T12:37:11.692Z,32.57
2019-03-02T12:39:27.432Z,21.03
2019-03-02T12:41:59.391Z,21.03
2019-03-02T12:44:39.204Z,20.13
2019-03-02T12:47:05.996Z,20.60
2019-03-02T12:49:44.007Z,24.57
2019-03-02T12:52:12.269Z,19.57
2019-03-02T12:54:34.943Z,23.33
2019-03-02T12:56:45.206Z,18.37
2019-03-02T12:59:03.776Z,22.60
2019-03-02T13:01:19.628Z,25.73
2019-03-02T13:03:52.397Z,20.57
2019-03-02T13:06:06.874Z,35.97
2019-03-02T13:08:37.218Z,27.63
2019-03-02T13:11:05.606Z,26.13
2019-03-02T13:13:23.322Z,30.37
2019-03-02T13:15:48.322Z,23.63
2019-03-02T13:18:14.039Z,25.57
2019-03-02T13:20:42.357Z,25.17
2019-03-02T13:23:06.707Z,21.37
2019-03-02T13:25:42.048Z,25.23
2019-03-02T13:28:05.102Z,22.40
2019-03-02T13:30:29.539Z,20.80
2019-03-02T13:33:08.501Z,22.33
2019-03-02T13:35:28.298Z,21.20
2019-03-02T13:37:53.003Z,21.97
2019-03-02T13:40:22.187Z,26.17
2019-03-02T13:42:51.010Z,27.83
2019-03-02T13:45:20.401Z,23.10
2019-03-02T13:47:48.826Z,30.60
2019-03-02T13:49:59.532Z,25.23
2019-03-02T13:52:21.890Z,25.83
2019-03-02T13:54:38.330Z,18.50
2019-03-02T13:57:04.441Z,25.33
2019-03-02T13:59:27.210Z,20.20
2019-03-02T14:01:40.527Z,23.13
2019-03-02T14:04:10.050Z,27.23
2019-03-02T14:06:45.981Z,22.93
2019-03-02T14:09:09.667Z,18.10
2019-03-02T14:11:24.122Z,24.47
2019-03-02T14:13:53.810Z,22.10
2019-03-02T14:16:17.448Z,21.33
2019-03-02T14:18:44.183Z,26.90
2019-03-02T14:21:16.556Z,21.93
2019-03-02T14:23:44.897Z,18.30
2019-03-02T14:26:13.853Z,20.47
2019-03-02T14:28:53.806Z,18.20
2019-03-02T14:31:20.361Z,17.53
2019-03-02T14:33:41.392Z,23.93
2019-03-02T14:35:57.463Z,20.73
2019-03-02T14:38:20.256Z,17.63
2019-03-02T14:40:57.291Z,20.90
2019-03-02T14:43:29.847Z,30.70
2019-03-02T14:45:46.808Z,22.17
2019-03-02T14:48:18.141Z,20.90
2019-03-02T14:50:51.252Z,15.60
2019-03-02T14:53:12.419Z,16.93
2019-03-02T14:55:33.574Z,18.50
2019-03-02T14:58:07.782Z,22.23
2019-03-02T15:00:43.488Z,21.20
2019-03-02T15:03:48.314Z,14.23
2019-03-02T15:06:49.983Z,22.00
2019-03-02T15:09:12.399Z,25.57
2019-03-02T15:11:29.802Z,24.23
2019-03-02T15:14:29.781Z,28.33
2019-03-02T16:01:51.531Z,29.33
2019-03-02T16:04:23.867Z,23.20
2019-03-02T16:06:58.696Z,21.43
2019-03-02T16:09:30.768Z,16.97
2019-03-02T16:15:08.948Z,14.40
2019-03-02T16:20:18.351Z,10.40
2019-03-02T16:23:23.650Z,11.00
2019-03-02T16:26:21.454Z,11.90
2019-03-02T16:29:20.906Z,15.23
2019-03-02T16:32:13.184Z,12.40
2019-03-02T16:34:57.095Z,12.53
2019-03-02T16:37:24.305Z,10.57
2019-03-02T16:39:54.881Z,8.97
2019-03-02T16:42:32.818Z,14.63
2019-03-02T16:45:18.775Z,9.13
2019-03-02T16:47:40.038Z,13.73
2019-03-02T16:50:08.192Z,11.83
2019-03-02T16:56:21.352Z,18.23
2019-03-02T17:01:16.956Z,12.33
2019-03-02T17:03:42.776Z,9.67
2019-03-02T17:06:32.750Z,9.63
2019-03-02T17:09:24.549Z,10.50
2019-03-02T17:11:51.559Z,9.20
2019-03-02T17:14:26.869Z,9.80
2019-03-02T17:17:02.675Z,11.67
2019-03-02T17:19:31.789Z,10.57
2019-03-02T17:21:58.327Z,11.87
2019-03-02T17:24:27.908Z,13.80
2019-03-02T17:26:42.167Z,10.57
2019-03-02T17:29:08.044Z,11.57
2019-03-02T17:31:36.228Z,11.47
2019-03-02T17:34:11.042Z,12.50
2019-03-02T17:36:33.181Z,13.10
2019-03-02T17:39:04.633Z,10.33
2019-03-02T17:41:37.429Z,10.60
2019-03-02T17:44:11.022Z,11.47
2019-03-02T17:46:35.157Z,15.97
2019-03-02T17:48:49.825Z,12.63
2019-03-02T17:51:13.245Z,15.53
2019-03-02T17:53:33.490Z,11.47
2019-03-02T17:56:09.243Z,17.90
2019-03-02T17:58:19.679Z,12.27
2019-03-02T18:00:46.038Z,13.07
2019-03-02T18:03:00.102Z,10.87
2019-03-02T18:05:22.560Z,12.30
2019-03-02T18:07:39.012Z,14.53
2019-03-02T18:10:00.984Z,13.30
2019-03-02T18:12:23.460Z,17.97
2019-03-02T18:14:37.435Z,12.57
2019-03-02T18:23:47.817Z,12.97
2019-03-02T18:26:43.799Z,17.67
2019-03-02T18:28:59.151Z,12.07
2019-03-02T18:31:46.011Z,11.30
2019-03-02T18:34:05.509Z,16.67
2019-03-02T18:36:18.245Z,13.70
2019-03-02T18:38:44.485Z,11.30
2019-03-02T18:40:52.110Z,17.17
2019-03-02T18:46:45.004Z,11.40
2019-03-02T18:53:20.123Z,14.10
2019-03-02T19:01:47.220Z,14.10
2019-03-02T19:04:19.376Z,15.97
2019-03-02T19:12:48.554Z,12.40
2019-03-02T19:15:56.157Z,15.73
2019-03-02T19:25:14.643Z,14.83
2019-03-02T19:27:34.931Z,13.40
2019-03-02T19:41:33.099Z,11.07
2019-03-02T19:43:39.630Z,15.80
2019-03-02T19:46:02.477Z,14.60
2019-03-02T19:48:08.370Z,11.80
2019-03-02T19:57:56.287Z,10.10
2019-03-02T20:19:41.239Z,8.73
2019-03-02T20:38:30.017Z,7.13
2019-03-02T20:43:34.029Z,11.50
2019-03-02T21:03:31.213Z,8.03
2019-03-02T21:05:36.866Z,11.53
2019-03-02T21:07:47.211Z,11.70
2019-03-02T21:13:35.191Z,7.90
2019-03-02T21:16:45.583Z,9.93
2019-03-02T21:21:02.346Z,7.93
2019-03-02T21:23:07.444Z,12.50
2019-03-02T21:25:31.788Z,12.03
2019-03-02T21:27:37.966Z,12.17
2019-03-02T21:29:42.887Z,12.10
2019-03-02T21:31:49.356Z,10.83
2019-03-02T21:33:54.729Z,14.70
2019-03-02T21:36:15.266Z,15.00
2019-03-02T21:38:20.353Z,10.40
2019-03-02T21:41:19.434Z,13.10
2019-03-02T21:43:31.210Z,12.93
2019-03-02T21:45:36.063Z,16.50
2019-03-02T21:47:41.833Z,15.83
2019-03-02T21:52:53.888Z,11.73
2019-03-02T22:09:05.722Z,12.63
2019-03-02T22:11:11.564Z,18.23
2019-03-02T22:13:16.852Z,12.80
2019-03-02T22:15:21.660Z,13.07
2019-03-02T22:17:28.879Z,14.93
2019-03-02T22:19:34.169Z,12.20
2019-03-02T22:21:39.193Z,12.20
2019-03-02T22:23:44.279Z,15.87
2019-03-02T22:25:52.924Z,23.03
2019-03-02T22:27:58.104Z,15.40
2019-03-02T22:30:03.677Z,22.33
2019-03-02T22:32:14.622Z,15.60
2019-03-02T22:34:29.080Z,21.00
2019-03-02T22:36:40.353Z,12.33
2019-03-02T22:38:45.791Z,17.87
2019-03-02T22:40:51.410Z,27.10
2019-03-02T22:42:59.467Z,23.00
2019-03-02T22:45:04.901Z,14.83
2019-03-02T22:47:11.985Z,15.43
2019-03-02T22:49:19.137Z,26.00
2019-03-02T22:51:24.458Z,21.43
2019-03-02T22:53:30.569Z,21.20
2019-03-02T22:55:35.798Z,15.63
2019-03-02T22:57:45.288Z,29.03
2019-03-02T23:00:11.293Z,22.83
2019-03-02T23:02:21.480Z,15.60
2019-03-02T23:04:29.348Z,18.30
2019-03-02T23:06:34.637Z,18.27
2019-03-02T23:08:39.979Z,15.23
2019-03-02T23:10:48.582Z,16.67
2019-03-02T23:13:01.718Z,17.47
2019-03-02T23:15:10.946Z,15.37
2019-03-02T23:17:26.574Z,13.33
2019-03-02T23:19:35.259Z,17.70
2019-03-02T23:21:40.713Z,15.13
2019-03-02T23:23:49.413Z,29.23
2019-03-02T23:26:03.398Z,16.60
2019-03-02T23:28:17.405Z,11.57
2019-03-02T23:30:22.898Z,15.47
2019-03-02T23:32:27.777Z,18.47
2019-03-02T23:34:37.908Z,14.53
2019-03-02T23:36:45.983Z,25.80
2019-03-02T23:38:55.145Z,12.03
2019-03-02T23:41:00.631Z,19.07
2019-03-02T23:43:10.874Z,14.17
2019-03-02T23:45:17.104Z,8.47
2019-03-02T23:47:23.029Z,16.23
2019-03-02T23:49:30.932Z,20.50
2019-03-02T23:51:41.890Z,17.73
2019-03-02T23:53:47.866Z,11.43
2019-03-02T23:55:53.079Z,15.73
2019-03-02T23:57:59.691Z,15.90
